Wetterdaten: Woche 06.10.14 - 12.10.14 (KW41)
Datum Zeit Temp. Aussen +5cm Feuchte Auss Luftdruck Regen Sonnenschein Regendauer Solar Windben
06.10.2014 00:00 12,4 C 11,3 C 97 % 1014,9 hPa 0,0 l/m 0,00 h 0,00 h 0 W/m 2,0 km/h (1 Bft)
06.10.2014 01:00 12,2 C 11,1 C 98 % 1014,3 hPa 0,0 l/m 0,00 h 0,00 h 0 W/m 2,4 km/h (1 Bft)
06.10.2014 02:00 12,1 C 11,1 C 98 % 1013,8 hPa 0,0 l/m 0,00 h 0,00 h 0 W/m 5,0 km/h (1 Bft)
06.10.2014 03:00 12,4 C 11,7 C 98 % 1013,4 hPa 0,0 l/m 0,00 h 0,00 h 0 W/m 7,6 km/h (2 Bft)
06.10.2014 04:00 12,4 C 11,7 C 98 % 1013,0 hPa 0,0 l/m 0,00 h 0,00 h 0 W/m 7,2 km/h (2 Bft)
06.10.2014 05:00 12,1 C 11,3 C 98 % 1012,7 hPa 0,0 l/m 0,00 h 0,00 h 0 W/m 9,6 km/h (2 Bft)
06.10.2014 06:00 11,1 C 10,1 C 98 % 1012,1 hPa 0,0 l/m 0,00 h 0,00 h 0 W/m 13,3 km/h (3 Bft)
06.10.2014 07:00 10,7 C 10,1 C 97 % 1012,0 hPa 0,0 l/m 0,00 h 0,00 h 4 W/m 11,7 km/h (2 Bft)
06.10.2014 08:00 11,3 C 10,8 C 97 % 1011,8 hPa 0,0 l/m 0,00 h 0,00 h 24 W/m 13,8 km/h (3 Bft)
06.10.2014 09:00 12,1 C 11,7 C 96 % 1011,5 hPa 0,0 l/m 0,00 h 0,00 h 51 W/m 16,6 km/h (3 Bft)
06.10.2014 10:00 13,1 C 12,7 C 95 % 1011,5 hPa 0,0 l/m 0,07 h 0,00 h 103 W/m 15,2 km/h (3 Bft)
06.10.2014 11:00 14,3 C 14,0 C 93 % 1011,4 hPa 0,0 l/m 0,57 h 0,00 h 247 W/m 19,2 km/h (3 Bft)
06.10.2014 12:00 16,4 C 15,5 C 86 % 1010,6 hPa 0,0 l/m 0,98 h 0,00 h 451 W/m 20,4 km/h (4 Bft)
06.10.2014 13:00 17,7 C 16,5 C 81 % 1009,9 hPa 0,0 l/m 0,63 h 0,00 h 288 W/m 19,3 km/h (3 Bft)
06.10.2014 14:00 17,2 C 16,3 C 83 % 1009,2 hPa 0,0 l/m 0,30 h 0,00 h 247 W/m 14,9 km/h (3 Bft)
06.10.2014 15:00 18,0 C 16,4 C 76 % 1008,4 hPa 0,0 l/m 0,03 h 0,00 h 105 W/m 16,2 km/h (3 Bft)
06.10.2014 16:00 17,4 C 15,8 C 78 % 1008,0 hPa 0,0 l/m 0,07 h 0,00 h 62 W/m 13,5 km/h (3 Bft)
06.10.2014 17:00 17,2 C 15,7 C 82 % 1007,6 hPa 0,0 l/m 0,07 h 0,00 h 67 W/m 15,5 km/h (3 Bft)
06.10.2014 18:00 16,8 C 15,0 C 84 % 1007,1 hPa 0,0 l/m 0,00 h 0,00 h 20 W/m 14,3 km/h (3 Bft)
06.10.2014 19:00 16,1 C 14,1 C 85 % 1007,2 hPa 0,0 l/m 0,00 h 0,00 h 0 W/m 12,9 km/h (3 Bft)
06.10.2014 20:00 15,4 C 13,9 C 86 % 1007,0 hPa 0,0 l/m 0,00 h 0,00 h 0 W/m 11,0 km/h (2 Bft)
06.10.2014 21:00 15,1 C 13,6 C 84 % 1006,5 hPa 0,0 l/m 0,00 h 0,00 h 0 W/m 11,2 km/h (2 Bft)
06.10.2014 22:00 14,8 C 13,3 C 86 % 1006,0 hPa 0,0 l/m 0,00 h 0,00 h 0 W/m 9,5 km/h (2 Bft)
06.10.2014 23:00 14,7 C 13,3 C 90 % 1005,5 hPa 0,0 l/m 0,00 h 0,00 h 0 W/m 16,6 km/h (3 Bft)
07.10.2014 00:00 14,6 C 13,3 C 90 % 1004,8 hPa 0,0 l/m 0,00 h 0,00 h 0 W/m 16,9 km/h (3 Bft)
07.10.2014 01:00 14,4 C 12,5 C 92 % 1004,0 hPa 0,4 l/m 0,00 h 0,87 h 0 W/m 18,0 km/h (3 Bft)
07.10.2014 02:00 14,0 C 12,2 C 94 % 1003,0 hPa 1,0 l/m 0,00 h 1,00 h 0 W/m 18,5 km/h (3 Bft)
07.10.2014 03:00 13,5 C 11,9 C 95 % 1002,2 hPa 1,0 l/m 0,00 h 0,93 h 0 W/m 22,7 km/h (4 Bft)
07.10.2014 04:00 13,2 C 11,7 C 96 % 1001,7 hPa 0,0 l/m 0,00 h 0,17 h 0 W/m 21,7 km/h (4 Bft)
07.10.2014 05:00 13,3 C 11,7 C 97 % 1001,0 hPa 0,2 l/m 0,00 h 0,17 h 0 W/m 18,3 km/h (3 Bft)
07.10.2014 06:00 13,0 C 11,6 C 96 % 1000,6 hPa 0,0 l/m 0,00 h 0,00 h 0 W/m 15,5 km/h (3 Bft)
07.10.2014 07:00 12,8 C 11,6 C 97 % 1000,4 hPa 0,0 l/m 0,00 h 0,00 h 5 W/m 9,3 km/h (2 Bft)
07.10.2014 08:00 13,0 C 11,8 C 97 % 999,6 hPa 7,8 l/m 0,00 h 0,73 h 9 W/m 11,5 km/h (2 Bft)
07.10.2014 09:00 13,4 C 12,2 C 98 % 999,5 hPa 3,0 l/m 0,00 h 0,60 h 33 W/m 14,4 km/h (3 Bft)
07.10.2014 10:00 13,7 C 12,4 C 98 % 999,6 hPa 0,2 l/m 0,20 h 0,10 h 158 W/m 14,4 km/h (3 Bft)
07.10.2014 11:00 14,9 C 14,0 C 98 % 999,3 hPa 0,0 l/m 0,97 h 0,00 h 413 W/m 24,5 km/h (4 Bft)
07.10.2014 12:00 17,0 C 15,0 C 81 % 999,8 hPa 0,0 l/m 0,90 h 0,03 h 433 W/m 35,9 km/h (5 Bft)
07.10.2014 13:00 17,1 C 15,1 C 74 % 1000,2 hPa 0,0 l/m 0,80 h 0,00 h 286 W/m 36,7 km/h (5 Bft)
07.10.2014 14:00 16,9 C 15,2 C 71 % 1000,7 hPa 0,0 l/m 0,30 h 0,00 h 200 W/m 37,9 km/h (5 Bft)
07.10.2014 15:00 15,8 C 13,5 C 78 % 1001,5 hPa 0,0 l/m 0,33 h 0,10 h 223 W/m 31,8 km/h (5 Bft)
07.10.2014 16:00 16,0 C 14,2 C 73 % 1001,8 hPa 0,0 l/m 0,47 h 0,00 h 151 W/m 29,5 km/h (5 Bft)
07.10.2014 17:00 15,3 C 13,3 C 76 % 1002,0 hPa 0,0 l/m 0,10 h 0,07 h 61 W/m 19,4 km/h (3 Bft)
07.10.2014 18:00 14,7 C 12,9 C 78 % 1002,6 hPa 0,0 l/m 0,00 h 0,07 h 16 W/m 16,8 km/h (3 Bft)
07.10.2014 19:00 13,2 C 10,3 C 84 % 1003,4 hPa 1,4 l/m 0,00 h 0,57 h 0 W/m 13,1 km/h (3 Bft)
07.10.2014 20:00 11,7 C 9,5 C 90 % 1004,1 hPa 0,2 l/m 0,00 h 0,03 h 0 W/m 9,4 km/h (2 Bft)
07.10.2014 21:00 11,3 C 9,8 C 92 % 1005,4 hPa 1,4 l/m 0,00 h 0,43 h 0 W/m 16,8 km/h (3 Bft)
07.10.2014 22:00 10,6 C 8,9 C 93 % 1006,5 hPa 0,6 l/m 0,00 h 0,47 h 0 W/m 19,0 km/h (3 Bft)
07.10.2014 23:00 9,9 C 8,3 C 94 % 1007,0 hPa 0,0 l/m 0,00 h 0,00 h 0 W/m 15,6 km/h (3 Bft)
08.10.2014 00:00 9,6 C 8,3 C 94 % 1007,7 hPa 0,0 l/m 0,00 h 0,00 h 0 W/m 13,3 km/h (3 Bft)
08.10.2014 01:00 9,3 C 7,8 C 94 % 1008,6 hPa 0,0 l/m 0,00 h 0,00 h 0 W/m 12,1 km/h (2 Bft)
08.10.2014 02:00 9,1 C 7,8 C 95 % 1008,7 hPa 0,0 l/m 0,00 h 0,00 h 0 W/m 13,7 km/h (3 Bft)
08.10.2014 03:00 9,2 C 7,9 C 95 % 1008,8 hPa 0,0 l/m 0,00 h 0,00 h 0 W/m 12,9 km/h (3 Bft)
08.10.2014 04:00 9,1 C 7,8 C 95 % 1008,6 hPa 0,0 l/m 0,00 h 0,00 h 0 W/m 11,5 km/h (2 Bft)
08.10.2014 05:00 9,2 C 8,3 C 95 % 1008,3 hPa 0,0 l/m 0,00 h 0,00 h 0 W/m 11,9 km/h (2 Bft)
08.10.2014 06:00 9,5 C 8,6 C 95 % 1007,7 hPa 0,0 l/m 0,00 h 0,00 h 0 W/m 14,2 km/h (3 Bft)
08.10.2014 07:00 9,9 C 8,9 C 94 % 1007,2 hPa 0,0 l/m 0,00 h 0,00 h 5 W/m 12,3 km/h (3 Bft)
08.10.2014 08:00 10,4 C 9,5 C 95 % 1006,8 hPa 0,0 l/m 0,00 h 0,03 h 18 W/m 11,6 km/h (2 Bft)
08.10.2014 09:00 11,1 C 10,4 C 96 % 1006,5 hPa 0,0 l/m 0,00 h 0,00 h 51 W/m 14,5 km/h (3 Bft)
08.10.2014 10:00 12,4 C 11,9 C 96 % 1006,1 hPa 0,0 l/m 0,00 h 0,13 h 101 W/m 16,3 km/h (3 Bft)
08.10.2014 11:00 13,4 C 11,7 C 95 % 1005,9 hPa 1,4 l/m 0,00 h 1,00 h 52 W/m 16,1 km/h (3 Bft)
08.10.2014 12:00 13,3 C 11,7 C 96 % 1005,4 hPa 1,4 l/m 0,00 h 0,98 h 74 W/m 21,6 km/h (4 Bft)
08.10.2014 13:00 13,5 C 12,1 C 97 % 1004,8 hPa 1,6 l/m 0,00 h 1,00 h 101 W/m 20,4 km/h (4 Bft)
08.10.2014 14:00 13,7 C 12,4 C 98 % 1003,7 hPa 1,0 l/m 0,00 h 0,83 h 90 W/m 23,4 km/h (4 Bft)
08.10.2014 15:00 14,2 C 13,4 C 98 % 1002,6 hPa 0,0 l/m 0,17 h 0,10 h 157 W/m 22,0 km/h (4 Bft)
08.10.2014 16:00 15,1 C 13,9 C 98 % 1001,8 hPa 0,0 l/m 0,77 h 0,00 h 238 W/m 20,2 km/h (4 Bft)
08.10.2014 17:00 16,0 C 14,3 C 97 % 1001,6 hPa 0,0 l/m 0,77 h 0,07 h 125 W/m 16,8 km/h (3 Bft)
08.10.2014 18:00 16,1 C 14,1 C 95 % 1001,7 hPa 0,0 l/m 0,47 h 0,00 h 25 W/m 15,6 km/h (3 Bft)
08.10.2014 19:00 15,8 C 13,7 C 93 % 1001,8 hPa 0,0 l/m 0,00 h 0,00 h 0 W/m 16,3 km/h (3 Bft)
08.10.2014 20:00 15,4 C 13,3 C 94 % 1002,1 hPa 0,0 l/m 0,00 h 0,00 h 0 W/m 16,1 km/h (3 Bft)
08.10.2014 21:00 15,3 C 13,7 C 94 % 1001,7 hPa 0,0 l/m 0,00 h 0,00 h 0 W/m 15,7 km/h (3 Bft)
08.10.2014 22:00 15,6 C 13,5 C 94 % 1001,2 hPa 1,6 l/m 0,00 h 0,70 h 0 W/m 12,7 km/h (3 Bft)
08.10.2014 23:00 15,5 C 13,7 C 96 % 1001,2 hPa 4,6 l/m 0,00 h 1,00 h 0 W/m 18,9 km/h (3 Bft)
09.10.2014 00:00 15,5 C 13,9 C 97 % 1000,9 hPa 1,4 l/m 0,00 h 0,98 h 0 W/m 20,1 km/h (4 Bft)
09.10.2014 01:00 15,5 C 13,9 C 98 % 1000,8 hPa 0,2 l/m 0,00 h 0,43 h 0 W/m 16,4 km/h (3 Bft)
09.10.2014 02:00 15,6 C 13,9 C 98 % 1001,2 hPa 0,0 l/m 0,00 h 0,00 h 0 W/m 12,5 km/h (3 Bft)
09.10.2014 03:00 15,8 C 14,4 C 98 % 1001,5 hPa 0,2 l/m 0,00 h 0,20 h 0 W/m 18,8 km/h (3 Bft)
09.10.2014 04:00 15,7 C 13,9 C 98 % 1002,1 hPa 0,0 l/m 0,00 h 0,00 h 0 W/m 14,8 km/h (3 Bft)
09.10.2014 05:00 15,4 C 13,9 C 98 % 1002,8 hPa 0,0 l/m 0,00 h 0,00 h 0 W/m 13,6 km/h (3 Bft)
09.10.2014 06:00 15,2 C 13,4 C 97 % 1003,4 hPa 0,0 l/m 0,00 h 0,00 h 0 W/m 10,6 km/h (2 Bft)
09.10.2014 07:00 15,0 C 13,2 C 96 % 1003,8 hPa 0,0 l/m 0,00 h 0,00 h 4 W/m 10,6 km/h (2 Bft)
09.10.2014 08:00 14,6 C 12,9 C 96 % 1004,3 hPa 0,0 l/m 0,10 h 0,00 h 32 W/m 10,3 km/h (2 Bft)
09.10.2014 09:00 14,7 C 13,6 C 96 % 1004,8 hPa 0,0 l/m 0,00 h 0,00 h 69 W/m 9,6 km/h (2 Bft)
09.10.2014 10:00 15,6 C 14,7 C 95 % 1005,2 hPa 0,0 l/m 0,00 h 0,00 h 118 W/m 10,4 km/h (2 Bft)
09.10.2014 11:00 16,4 C 15,1 C 92 % 1005,4 hPa 0,0 l/m 0,00 h 0,00 h 123 W/m 13,7 km/h (3 Bft)
09.10.2014 12:00 16,7 C 15,5 C 87 % 1005,5 hPa 0,0 l/m 0,00 h 0,13 h 153 W/m 14,1 km/h (3 Bft)
09.10.2014 13:00 16,9 C 15,4 C 85 % 1005,5 hPa 0,0 l/m 0,00 h 0,03 h 134 W/m 16,0 km/h (3 Bft)
09.10.2014 14:00 17,0 C 15,5 C 83 % 1005,8 hPa 0,0 l/m 0,00 h 0,00 h 122 W/m 15,3 km/h (3 Bft)
09.10.2014 15:00 17,3 C 15,7 C 82 % 1005,7 hPa 0,0 l/m 0,00 h 0,00 h 121 W/m 16,4 km/h (3 Bft)
09.10.2014 16:00 17,4 C 15,9 C 82 % 1005,8 hPa 0,0 l/m 0,80 h 0,00 h 146 W/m 19,0 km/h (3 Bft)
09.10.2014 17:00 17,3 C 15,6 C 82 % 1005,9 hPa 0,0 l/m 0,90 h 0,00 h 136 W/m 18,3 km/h (3 Bft)
09.10.2014 18:00 17,0 C 14,9 C 83 % 1006,3 hPa 0,0 l/m 0,07 h 0,00 h 20 W/m 15,9 km/h (3 Bft)
09.10.2014 19:00 16,2 C 13,9 C 84 % 1007,1 hPa 0,0 l/m 0,00 h 0,00 h 0 W/m 12,4 km/h (3 Bft)
09.10.2014 20:00 15,2 C 13,1 C 87 % 1007,9 hPa 0,0 l/m 0,00 h 0,00 h 0 W/m 14,4 km/h (3 Bft)
09.10.2014 21:00 14,5 C 12,8 C 89 % 1008,6 hPa 0,0 l/m 0,00 h 0,00 h 0 W/m 15,8 km/h (3 Bft)
09.10.2014 22:00 14,2 C 12,4 C 89 % 1009,1 hPa 0,0 l/m 0,00 h 0,00 h 0 W/m 15,8 km/h (3 Bft)
09.10.2014 23:00 13,7 C 12,0 C 89 % 1009,5 hPa 0,0 l/m 0,00 h 0,00 h 0 W/m 14,9 km/h (3 Bft)
10.10.2014 00:00 13,2 C 11,4 C 90 % 1009,7 hPa 0,0 l/m 0,00 h 0,00 h 0 W/m 13,2 km/h (3 Bft)
10.10.2014 01:00 12,8 C 11,1 C 91 % 1010,0 hPa 0,0 l/m 0,00 h 0,00 h 0 W/m 9,9 km/h (2 Bft)
10.10.2014 02:00 12,9 C 11,9 C 92 % 1010,3 hPa 0,0 l/m 0,00 h 0,17 h 0 W/m 13,4 km/h (3 Bft)
10.10.2014 03:00 13,4 C 11,7 C 93 % 1010,9 hPa 3,2 l/m 0,00 h 0,87 h 0 W/m 8,6 km/h (2 Bft)
10.10.2014 04:00 13,2 C 11,7 C 94 % 1010,7 hPa 0,0 l/m 0,00 h 0,10 h 0 W/m 9,6 km/h (2 Bft)
10.10.2014 05:00 12,9 C 11,1 C 96 % 1011,0 hPa 0,0 l/m 0,00 h 0,00 h 0 W/m 10,9 km/h (2 Bft)
10.10.2014 06:00 12,6 C 11,0 C 96 % 1011,5 hPa 0,0 l/m 0,00 h 0,00 h 0 W/m 7,7 km/h (2 Bft)
10.10.2014 07:00 12,2 C 10,6 C 96 % 1012,0 hPa 0,0 l/m 0,00 h 0,00 h 6 W/m 10,3 km/h (2 Bft)
10.10.2014 08:00 12,1 C 10,9 C 97 % 1012,6 hPa 0,2 l/m 0,97 h 0,00 h 50 W/m 9,0 km/h (2 Bft)
10.10.2014 09:00 12,9 C 12,4 C 98 % 1013,5 hPa 0,0 l/m 0,97 h 0,00 h 188 W/m 13,1 km/h (3 Bft)
10.10.2014 10:00 14,0 C 12,9 C 96 % 1014,3 hPa 0,0 l/m 0,80 h 0,00 h 207 W/m 17,5 km/h (3 Bft)
10.10.2014 11:00 16,0 C 14,1 C 82 % 1014,6 hPa 0,0 l/m 1,00 h 0,00 h 429 W/m 21,2 km/h (4 Bft)
10.10.2014 12:00 17,6 C 15,4 C 75 % 1014,8 hPa 0,0 l/m 0,97 h 0,00 h 545 W/m 20,2 km/h (4 Bft)
10.10.2014 13:00 18,9 C 16,3 C 70 % 1014,8 hPa 0,0 l/m 1,00 h 0,00 h 547 W/m 16,6 km/h (3 Bft)
10.10.2014 14:00 19,6 C 16,8 C 65 % 1014,8 hPa 0,0 l/m 1,00 h 0,00 h 445 W/m 16,7 km/h (3 Bft)
10.10.2014 15:00 19,5 C 16,7 C 64 % 1014,9 hPa 0,0 l/m 1,00 h 0,00 h 357 W/m 13,5 km/h (3 Bft)
10.10.2014 16:00 18,9 C 16,1 C 65 % 1014,7 hPa 0,0 l/m 1,00 h 0,00 h 175 W/m 10,3 km/h (2 Bft)
10.10.2014 17:00 18,0 C 15,0 C 69 % 1014,6 hPa 0,0 l/m 0,20 h 0,00 h 74 W/m 6,2 km/h (2 Bft)
10.10.2014 18:00 16,9 C 13,2 C 74 % 1014,6 hPa 0,0 l/m 0,33 h 0,00 h 21 W/m 4,1 km/h (1 Bft)
10.10.2014 19:00 15,2 C 12,0 C 80 % 1014,6 hPa 0,0 l/m 0,00 h 0,00 h 0 W/m 2,0 km/h (1 Bft)
10.10.2014 20:00 13,9 C 11,4 C 86 % 1014,7 hPa 0,0 l/m 0,00 h 0,00 h 0 W/m 1,1 km/h (0 Bft)
10.10.2014 21:00 13,1 C 11,1 C 89 % 1014,8 hPa 0,0 l/m 0,00 h 0,00 h 0 W/m 1,3 km/h (1 Bft)
10.10.2014 22:00 12,6 C 11,1 C 91 % 1014,6 hPa 0,0 l/m 0,00 h 0,00 h 0 W/m 1,5 km/h (1 Bft)
10.10.2014 23:00 12,3 C 10,7 C 92 % 1014,6 hPa 0,0 l/m 0,00 h 0,00 h 0 W/m 1,7 km/h (1 Bft)
11.10.2014 00:00 12,0 C 10,3 C 93 % 1014,3 hPa 0,0 l/m 0,00 h 0,00 h 0 W/m 3,1 km/h (1 Bft)
11.10.2014 01:00 11,4 C 9,8 C 94 % 1014,1 hPa 0,0 l/m 0,00 h 0,00 h 0 W/m 2,5 km/h (1 Bft)
11.10.2014 02:00 10,8 C 9,2 C 94 % 1013,9 hPa 0,0 l/m 0,00 h 0,00 h 0 W/m 2,2 km/h (1 Bft)
11.10.2014 03:00 10,2 C 8,7 C 94 % 1013,9 hPa 0,0 l/m 0,00 h 0,00 h 0 W/m 1,2 km/h (1 Bft)
11.10.2014 04:00 9,5 C 8,0 C 95 % 1013,6 hPa 0,0 l/m 0,00 h 0,00 h 0 W/m 0,4 km/h (0 Bft)
11.10.2014 05:00 9,0 C 7,7 C 95 % 1013,3 hPa 0,0 l/m 0,00 h 0,00 h 0 W/m 1,6 km/h (1 Bft)
11.10.2014 06:00 8,8 C 7,8 C 96 % 1013,1 hPa 0,0 l/m 0,00 h 0,00 h 0 W/m 4,7 km/h (1 Bft)
11.10.2014 07:00 8,7 C 7,3 C 96 % 1012,9 hPa 0,0 l/m 0,00 h 0,00 h 4 W/m 1,5 km/h (1 Bft)
11.10.2014 08:00 8,3 C 7,5 C 96 % 1013,3 hPa 0,0 l/m 0,23 h 0,00 h 40 W/m 3,3 km/h (1 Bft)
11.10.2014 09:00 9,9 C 10,2 C 98 % 1013,3 hPa 0,0 l/m 0,40 h 0,00 h 103 W/m 6,6 km/h (2 Bft)
11.10.2014 10:00 12,6 C 12,5 C 99 % 1013,0 hPa 0,0 l/m 1,00 h 0,00 h 341 W/m 10,6 km/h (2 Bft)
11.10.2014 11:00 15,8 C 15,4 C 97 % 1012,7 hPa 0,0 l/m 1,00 h 0,00 h 374 W/m 10,0 km/h (2 Bft)
11.10.2014 12:00 17,6 C 16,3 C 86 % 1012,4 hPa 0,0 l/m 0,97 h 0,00 h 290 W/m 11,1 km/h (2 Bft)
11.10.2014 13:00 18,9 C 17,1 C 81 % 1012,2 hPa 0,0 l/m 1,00 h 0,00 h 366 W/m 11,6 km/h (2 Bft)
11.10.2014 14:00 19,3 C 17,7 C 80 % 1011,9 hPa 0,0 l/m 0,87 h 0,00 h 264 W/m 12,4 km/h (3 Bft)
11.10.2014 15:00 19,5 C 17,7 C 80 % 1011,7 hPa 0,0 l/m 0,70 h 0,13 h 180 W/m 8,8 km/h (2 Bft)
11.10.2014 16:00 19,7 C 17,7 C 80 % 1011,4 hPa 0,0 l/m 0,73 h 0,00 h 184 W/m 9,2 km/h (2 Bft)
11.10.2014 17:00 19,4 C 16,3 C 76 % 1011,1 hPa 0,0 l/m 0,13 h 0,17 h 48 W/m 10,9 km/h (2 Bft)
11.10.2014 18:00 17,2 C 13,7 C 86 % 1011,7 hPa 1,6 l/m 0,30 h 0,23 h 16 W/m 17,5 km/h (3 Bft)
11.10.2014 19:00 15,3 C 13,0 C 92 % 1012,5 hPa 0,0 l/m 0,00 h 0,00 h 0 W/m 15,8 km/h (3 Bft)
11.10.2014 20:00 14,2 C 12,1 C 93 % 1013,3 hPa 0,0 l/m 0,00 h 0,00 h 0 W/m 11,7 km/h (2 Bft)
11.10.2014 21:00 13,6 C 11,8 C 94 % 1014,1 hPa 0,0 l/m 0,00 h 0,00 h 0 W/m 8,0 km/h (2 Bft)
11.10.2014 22:00 12,9 C 11,0 C 94 % 1014,5 hPa 0,0 l/m 0,00 h 0,00 h 0 W/m 7,7 km/h (2 Bft)
11.10.2014 23:00 12,3 C 10,7 C 95 % 1014,5 hPa 0,0 l/m 0,00 h 0,00 h 0 W/m 8,5 km/h (2 Bft)
12.10.2014 00:00 11,7 C 10,2 C 96 % 1014,6 hPa 0,0 l/m 0,00 h 0,00 h 0 W/m 8,1 km/h (2 Bft)
12.10.2014 01:00 11,0 C 9,1 C 96 % 1014,7 hPa 0,0 l/m 0,00 h 0,00 h 0 W/m 6,6 km/h (2 Bft)
12.10.2014 02:00 10,6 C 9,1 C 96 % 1014,9 hPa 0,0 l/m 0,00 h 0,00 h 0 W/m 7,7 km/h (2 Bft)
12.10.2014 03:00 10,3 C 8,9 C 97 % 1014,8 hPa 0,0 l/m 0,00 h 0,00 h 0 W/m 6,9 km/h (2 Bft)
12.10.2014 04:00 9,9 C 8,4 C 97 % 1014,7 hPa 0,0 l/m 0,00 h 0,00 h 0 W/m 5,2 km/h (1 Bft)
12.10.2014 05:00 9,4 C 7,8 C 97 % 1014,9 hPa 0,0 l/m 0,00 h 0,00 h 0 W/m 3,9 km/h (1 Bft)
12.10.2014 06:00 8,8 C 7,3 C 97 % 1014,8 hPa 0,2 l/m 0,00 h 0,00 h 0 W/m 3,2 km/h (1 Bft)
12.10.2014 07:00 8,3 C 7,0 C 97 % 1014,6 hPa 0,0 l/m 0,00 h 0,00 h 6 W/m 2,3 km/h (1 Bft)
12.10.2014 08:00 8,1 C 7,4 C 97 % 1014,8 hPa 0,0 l/m 0,93 h 0,00 h 63 W/m 5,6 km/h (1 Bft)
12.10.2014 09:00 9,6 C 9,1 C 98 % 1014,9 hPa 0,0 l/m 1,00 h 0,00 h 203 W/m 10,9 km/h (2 Bft)
12.10.2014 10:00 12,2 C 11,2 C 99 % 1014,9 hPa 0,0 l/m 1,00 h 0,00 h 287 W/m 11,3 km/h (2 Bft)
12.10.2014 11:00 14,2 C 12,9 C 97 % 1014,4 hPa 0,0 l/m 1,00 h 0,00 h 407 W/m 13,7 km/h (3 Bft)
12.10.2014 12:00 16,5 C 14,4 C 85 % 1014,2 hPa 0,0 l/m 0,97 h 0,00 h 440 W/m 16,6 km/h (3 Bft)
12.10.2014 13:00 17,5 C 15,1 C 79 % 1013,5 hPa 0,0 l/m 1,00 h 0,00 h 280 W/m 13,5 km/h (3 Bft)
12.10.2014 14:00 17,4 C 15,8 C 79 % 1012,7 hPa 0,0 l/m 1,00 h 0,00 h 286 W/m 12,7 km/h (3 Bft)
12.10.2014 15:00 18,3 C 16,2 C 74 % 1011,5 hPa 0,0 l/m 0,87 h 0,00 h 291 W/m 16,9 km/h (3 Bft)
12.10.2014 16:00 17,8 C 15,5 C 76 % 1010,8 hPa 0,0 l/m 0,13 h 0,00 h 118 W/m 13,2 km/h (3 Bft)
12.10.2014 17:00 16,8 C 14,6 C 80 % 1010,1 hPa 0,0 l/m 0,00 h 0,00 h 45 W/m 14,3 km/h (3 Bft)
12.10.2014 18:00 16,0 C 13,9 C 82 % 1009,8 hPa 0,0 l/m 0,00 h 0,00 h 9 W/m 13,6 km/h (3 Bft)
12.10.2014 19:00 15,5 C 13,2 C 85 % 1009,2 hPa 0,0 l/m 0,00 h 0,47 h 0 W/m 15,3 km/h (3 Bft)
12.10.2014 20:00 14,9 C 12,5 C 89 % 1008,3 hPa 0,2 l/m 0,00 h 0,80 h 0 W/m 17,1 km/h (3 Bft)
12.10.2014 21:00 14,3 C 12,2 C 90 % 1007,7 hPa 0,0 l/m 0,00 h 0,13 h 0 W/m 12,8 km/h (3 Bft)
12.10.2014 22:00 14,2 C 12,2 C 92 % 1007,2 hPa 0,4 l/m 0,00 h 0,80 h 0 W/m 10,2 km/h (2 Bft)
12.10.2014 23:00 13,8 C 12,2 C 94 % 1006,8 hPa 0,2 l/m 0,00 h 0,17 h 0 W/m 9,9 km/h (2 Bft)
Min-Datum _ 12.10.14 12.10.14 10.10.14 07.10.14 - - - - 06.10.14
_ Min-Zeit 08:04 07:36 15:54 11:42 - - - - 00:18
Minimum _ 7,9 C 6,7 C 62 % 998,8 hPa - - - - 0,0 km/h (0 Bft)
Max-Datum _ 11.10.14 11.10.14 07.10.14 06.10.14 07.10.14 06.10.14 07.10.14 06.10.14 07.10.14
_ Max-Zeit 17:04 14:26 10:58 00:00 08:56 10:12 01:00 14:50 14:40
Maximum _ 20,0 C 18,3 C 99 % 1015,1 hPa 7,8 l/m 0,03 h 0,03 h 759 W/m 64,4 km/h
SW (8 Bft)
Durchschnitt _ 14,0 C 12,4 C 90 % 1008,7 hPa #36,6 l/m #35:17 h #18:04 h 161 W/m 13,0 km/h (3 Bft)
© 2014 W. Hausmann